Time;durP1;ratioP1;P1;durP2;ratioP2;P2;SDS_P1;SDS_P2;PMS_P1;PMS_P2;Temp;Humidity;BMP_temperature;BMP_pressure;BME280_temperature;BME280_humidity;BME280_pressure;Samples;Min_cycle;Max_cycle;Signal;HPM_P1;HPM_P2
2022/11/12 00:02:51;;;;;;;61.42;25.88;;;;;;;5.54;73.70;100745.84;5118405;29;20421;-69
2022/11/12 00:06:00;;;;;;;34.95;17.85;;;;;;;5.58;74.05;100740.34;5115404;29;20055;-69
2022/11/12 00:09:08;;;;;;;30.27;16.35;;;;;;;5.48;73.55;100744.31;5123824;29;20109;-69
2022/11/12 00:12:17;;;;;;;29.85;15.77;;;;;;;5.40;73.70;100741.19;5122168;29;20126;-70
2022/11/12 00:15:26;;;;;;;43.90;17.42;;;;;;;5.31;73.69;100736.34;5122061;29;20102;-71
2022/11/12 00:18:35;;;;;;;25.95;15.73;;;;;;;5.34;72.89;100731.78;5122808;29;20048;-72
2022/11/12 00:21:44;;;;;;;43.47;16.90;;;;;;;5.38;73.92;100735.13;5122608;28;20074;-70
2022/11/12 00:24:53;;;;;;;29.38;16.30;;;;;;;5.24;72.96;100733.13;5119292;29;20051;-70
2022/11/12 00:28:07;;;;;;;28.55;16.00;;;;;;;5.25;73.84;100729.56;5118597;29;20102;-71
2022/11/12 00:31:16;;;;;;;35.30;16.23;;;;;;;5.21;72.92;100729.78;5119502;28;20058;-72
2022/11/12 00:34:25;;;;;;;40.13;17.23;;;;;;;5.34;73.85;100744.09;5120442;29;20696;-70
2022/11/12 00:37:34;;;;;;;31.02;16.85;;;;;;;5.34;73.51;100730.94;5120483;29;20186;-72
2022/11/12 00:40:43;;;;;;;39.72;16.92;;;;;;;5.26;73.96;100736.53;5119005;29;20097;-70
2022/11/12 00:43:52;;;;;;;41.63;18.83;;;;;;;5.21;74.32;100729.78;5116953;29;20541;-71
2022/11/12 00:47:01;;;;;;;37.92;18.75;;;;;;;5.10;74.38;100727.59;5122278;28;20054;-72
2022/11/12 00:50:11;;;;;;;38.05;18.67;;;;;;;5.09;74.63;100724.09;5120443;28;20051;-71
2022/11/12 00:53:20;;;;;;;47.42;20.05;;;;;;;4.90;74.38;100696.91;5122677;29;20073;-72
2022/11/12 00:56:29;;;;;;;44.58;19.67;;;;;;;5.07;73.73;100718.09;5122206;29;20508;-73
2022/11/12 00:59:43;;;;;;;30.90;18.25;;;;;;;5.09;74.21;100736.41;5119156;29;20054;-73
2022/11/12 01:02:52;;;;;;;48.45;18.60;;;;;;;5.01;73.73;100710.44;5122558;29;20051;-71
2022/11/12 01:06:05;;;;;;;41.15;20.92;;;;;;;5.27;75.66;100729.50;5120569;29;20047;-72
2022/11/12 01:09:14;;;;;;;57.97;19.80;;;;;;;5.19;73.83;100725.41;5104825;29;20055;-71
2022/11/12 01:12:22;;;;;;;58.35;20.65;;;;;;;5.24;74.13;100737.53;5109711;29;20533;-70
2022/11/12 01:15:31;;;;;;;73.75;19.77;;;;;;;5.10;75.01;100740.72;5118950;29;20175;-70
2022/11/12 01:18:40;;;;;;;50.17;19.45;;;;;;;5.06;74.36;100750.53;5107334;29;20075;-72
2022/11/12 01:21:49;;;;;;;84.28;20.27;;;;;;;5.12;74.72;100739.75;5117091;29;20126;-73
2022/11/12 01:24:58;;;;;;;63.33;19.52;;;;;;;5.11;74.14;100738.06;5102921;29;20075;-71
2022/11/12 01:28:07;;;;;;;46.10;18.90;;;;;;;4.88;74.06;100739.03;5119131;29;20062;-71
2022/11/12 01:31:21;;;;;;;56.33;19.75;;;;;;;5.06;75.03;100733.91;5120916;28;20079;-71
2022/11/12 01:34:30;;;;;;;86.45;20.45;;;;;;;4.76;75.00;100701.91;5102466;29;20146;-73
2022/11/12 01:37:39;;;;;;;61.40;19.30;;;;;;;4.89;74.75;100722.34;5118241;28;20631;-71
2022/11/12 01:40:48;;;;;;;78.32;18.25;;;;;;;4.90;74.22;100726.69;5122067;28;20551;-70
2022/11/12 01:44:07;;;;;;;64.85;18.38;;;;;;;4.90;74.20;100718.81;5114746;29;20422;-71
2022/11/12 01:47:26;;;;;;;43.10;17.20;;;;;;;4.81;74.05;100713.09;5120752;29;20434;-71
2022/11/12 01:50:38;;;;;;;47.97;18.30;;;;;;;4.92;74.90;100705.59;5116728;28;20071;-72
2022/11/12 01:53:50;;;;;;;62.53;18.05;;;;;;;4.79;74.34;100707.88;5119636;28;20655;-71
2022/11/12 01:57:00;;;;;;;37.63;17.63;;;;;;;4.69;74.64;100694.28;5120363;29;20058;-72
2022/11/12 02:00:11;;;;;;;38.15;17.80;;;;;;;4.72;74.21;100706.44;5116694;29;20521;-70
2022/11/12 02:03:23;;;;;;;40.03;17.10;;;;;;;4.74;74.16;100704.63;5121077;29;20066;-71
2022/11/12 02:06:33;;;;;;;41.58;17.45;;;;;;;4.70;73.88;100701.25;5120643;29;20102;-71
2022/11/12 02:09:42;;;;;;;44.30;17.35;;;;;;;4.54;73.79;100688.84;5117578;28;20058;-71
2022/11/12 02:16:21;;;;;;;31.85;17.98;;;;;;;4.42;72.35;100693.66;5116975;29;20071;-71
2022/11/12 02:19:30;;;;;;;30.88;17.08;;;;;;;4.36;73.45;100685.19;5117983;29;20090;-72
2022/11/12 02:22:39;;;;;;;31.27;16.52;;;;;;;4.26;73.65;100678.59;5121340;29;20101;-70
2022/11/12 02:25:48;;;;;;;27.42;16.10;;;;;;;4.23;73.74;100682.19;5119327;29;20465;-71
2022/11/12 02:28:57;;;;;;;31.23;16.17;;;;;;;4.24;74.24;100690.03;5121389;29;20051;-72
2022/11/12 02:32:06;;;;;;;37.38;16.52;;;;;;;4.31;73.97;100687.16;5119173;28;20051;-72
2022/11/12 02:35:15;;;;;;;26.58;15.23;;;;;;;4.05;73.44;100652.31;5121530;29;20062;-71
2022/11/12 02:38:25;;;;;;;35.17;16.25;;;;;;;4.21;72.93;100682.28;5118437;29;20130;-72
2022/11/12 02:41:34;;;;;;;60.45;17.30;;;;;;;4.18;73.20;100679.75;5117245;28;20071;-71
2022/11/12 02:44:43;;;;;;;27.50;15.43;;;;;;;4.16;72.83;100676.34;5118505;28;20051;-72
2022/11/12 02:47:52;;;;;;;30.50;16.35;;;;;;;4.19;72.81;100681.47;5101706;29;20133;-71
2022/11/12 02:51:02;;;;;;;45.22;17.13;;;;;;;4.20;73.43;100680.53;5114240;28;20066;-71
2022/11/12 02:54:11;;;;;;;38.17;16.08;;;;;;;4.15;73.23;100676.41;5120034;29;20059;-71
2022/11/12 02:57:20;;;;;;;45.88;15.48;;;;;;;4.23;73.55;100688.28;5119152;29;20058;-70
2022/11/12 03:00:28;;;;;;;28.95;16.98;;;;;;;4.14;73.48;100670.31;5117381;28;20130;-71
2022/11/12 03:03:37;;;;;;;26.85;15.68;;;;;;;4.17;73.18;100677.19;5119747;29;20086;-70
2022/11/12 03:06:46;;;;;;;24.95;14.63;;;;;;;4.00;73.33;100670.00;5119938;29;20074;-71
2022/11/12 03:09:55;;;;;;;23.20;14.32;;;;;;;4.11;73.51;100678.31;5105489;28;20732;-71
2022/11/12 03:13:05;;;;;;;24.60;14.38;;;;;;;4.20;73.77;100688.41;5123439;29;20518;-70
2022/11/12 03:16:14;;;;;;;25.75;14.88;;;;;;;4.22;73.43;100689.22;5122837;29;20078;-71
2022/11/12 03:19:23;;;;;;;21.90;13.05;;;;;;;4.11;74.05;100677.47;5123579;29;20062;-71
2022/11/12 03:22:31;;;;;;;21.80;13.30;;;;;;;4.20;73.57;100692.81;5120596;28;20058;-72
2022/11/12 03:25:40;;;;;;;23.10;13.13;;;;;;;4.12;74.28;100697.53;5113737;29;20186;-70
2022/11/12 03:28:52;;;;;;;20.10;12.38;;;;;;;4.08;74.17;100681.06;5118430;29;20145;-71
2022/11/12 03:32:01;;;;;;;21.10;12.88;;;;;;;4.17;73.76;100685.94;5118440;28;20477;-73
2022/11/12 03:35:10;;;;;;;24.25;14.68;;;;;;;4.22;73.22;100699.72;5123905;29;20148;-72
2022/11/12 03:38:19;;;;;;;25.17;14.02;;;;;;;4.23;73.49;100683.03;5123972;29;20137;-70
2022/11/12 03:41:28;;;;;;;26.52;14.98;;;;;;;4.24;73.39;100684.78;5120715;28;20051;-72
2022/11/12 03:44:36;;;;;;;23.50;13.75;;;;;;;4.44;73.96;100683.97;5120358;29;20054;-71
2022/11/12 03:47:48;;;;;;;24.85;14.27;;;;;;;4.41;73.31;100672.72;5121292;29;20090;-72
2022/11/12 03:50:58;;;;;;;22.23;13.52;;;;;;;4.30;73.06;100674.91;5121669;28;20078;-72
2022/11/12 03:54:07;;;;;;;23.75;13.95;;;;;;;4.29;73.48;100676.69;5104450;29;20055;-70
2022/11/12 03:57:16;;;;;;;24.95;12.43;;;;;;;4.35;73.55;100681.69;5114969;29;20054;-72
2022/11/12 04:00:27;;;;;;;21.42;11.57;;;;;;;4.30;73.38;100688.06;5122468;28;20104;-70
2022/11/12 04:03:36;;;;;;;21.20;11.60;;;;;;;4.28;73.22;100695.16;5110068;29;20078;-71
2022/11/12 04:10:13;;;;;;;23.60;13.02;;;;;;;4.20;73.34;100688.41;5121154;28;20062;-72
2022/11/12 04:13:27;;;;;;;22.40;13.15;;;;;;;4.12;73.65;100682.63;5122975;29;20082;-72
2022/11/12 04:23:32;;;;;;;26.63;16.35;;;;;;;4.13;75.15;100699.22;5121067;28;20059;-69
2022/11/12 04:26:41;;;;;;;31.42;16.52;;;;;;;4.14;75.35;100686.06;5120829;29;20058;-71
2022/11/12 04:33:18;;;;;;;23.88;14.98;;;;;;;4.39;74.56;100691.16;5107412;29;20526;-71
2022/11/12 04:36:27;;;;;;;26.83;15.70;;;;;;;4.45;74.55;100688.28;5123172;29;20190;-71
2022/11/12 04:39:36;;;;;;;29.17;16.33;;;;;;;4.36;74.19;100670.28;5121670;28;20070;-70
2022/11/12 04:46:14;;;;;;;30.10;16.77;;;;;;;4.69;74.58;100675.88;5121354;29;20540;-72
2022/11/12 04:49:23;;;;;;;29.02;17.33;;;;;;;4.53;73.79;100651.19;5122262;29;20560;-70
2022/11/12 04:52:32;;;;;;;32.40;18.10;;;;;;;4.80;74.45;100671.94;5120840;29;20088;-70
2022/11/12 04:55:41;;;;;;;28.83;17.48;;;;;;;4.83;73.60;100672.66;5119448;28;20426;-70
2022/11/12 04:58:50;;;;;;;28.88;17.50;;;;;;;4.87;74.13;100695.28;5119232;29;20514;-72
2022/11/12 05:01:59;;;;;;;30.45;16.58;;;;;;;4.72;73.57;100680.16;5121397;28;20533;-70
2022/11/12 05:05:08;;;;;;;25.75;15.73;;;;;;;4.85;73.37;100688.38;5118461;28;20055;-71
2022/11/12 05:08:17;;;;;;;26.23;15.18;;;;;;;4.92;73.48;100701.19;5121471;29;20047;-70
2022/11/12 05:11:25;;;;;;;24.20;14.63;;;;;;;4.83;73.39;100704.19;5119534;28;20185;-71
2022/11/12 05:14:34;;;;;;;25.25;14.73;;;;;;;4.69;74.17;100698.69;5119985;29;20458;-72
2022/11/12 05:17:44;;;;;;;22.98;13.90;;;;;;;4.76;73.68;100701.91;5118847;29;20118;-75
2022/11/12 05:20:53;;;;;;;21.67;13.88;;;;;;;4.76;73.80;100704.53;5120858;28;20133;-70
2022/11/12 05:24:02;;;;;;;23.58;14.52;;;;;;;4.74;74.21;100709.03;5121832;29;20470;-72
2022/11/12 05:27:16;;;;;;;28.33;15.25;;;;;;;4.64;74.00;100696.25;5120504;29;20047;-70
2022/11/12 05:30:25;;;;;;;24.38;13.88;;;;;;;4.61;74.33;100679.78;5115907;28;20130;-70
2022/11/12 05:33:34;;;;;;;26.83;14.55;;;;;;;4.53;74.49;100693.22;5121406;28;20091;-75
2022/11/12 05:36:43;;;;;;;24.40;13.77;;;;;;;4.68;73.79;100692.56;5121779;29;20062;-71
2022/11/12 05:39:51;;;;;;;22.45;13.13;;;;;;;4.76;73.66;100699.28;5121672;29;20409;-70
2022/11/12 05:43:00;;;;;;;22.08;14.45;;;;;;;4.66;72.97;100685.66;5120271;29;20067;-71
2022/11/12 05:46:09;;;;;;;23.30;13.98;;;;;;;4.60;73.71;100671.03;5119776;28;20058;-70
2022/11/12 05:49:18;;;;;;;21.38;12.82;;;;;;;4.63;72.97;100691.06;5102008;29;20078;-71
2022/11/12 05:52:27;;;;;;;22.55;14.20;;;;;;;4.57;74.07;100699.19;5112353;29;20055;-70
2022/11/12 05:55:37;;;;;;;22.60;14.07;;;;;;;4.58;74.30;100695.66;5121297;28;20138;-70
2022/11/12 05:58:46;;;;;;;22.55;13.35;;;;;;;4.58;73.26;100704.41;5120191;29;20130;-72
2022/11/12 06:01:55;;;;;;;21.77;12.43;;;;;;;4.56;74.32;100721.97;5116124;28;20062;-69
2022/11/12 06:05:04;;;;;;;21.48;12.85;;;;;;;4.80;73.77;100719.25;5117275;29;20051;-69
2022/11/12 06:08:13;;;;;;;24.80;13.55;;;;;;;4.64;73.50;100704.13;5120178;29;20066;-69
2022/11/12 06:11:22;;;;;;;22.65;14.27;;;;;;;4.58;73.64;100712.28;5120211;28;20086;-69
2022/11/12 06:14:30;;;;;;;22.48;12.30;;;;;;;4.45;72.78;100722.44;5121821;29;20106;-71
2022/11/12 06:17:41;;;;;;;20.40;12.13;;;;;;;4.46;73.55;100721.50;5120961;29;20074;-71
2022/11/12 06:24:18;;;;;;;25.42;14.38;;;;;;;4.38;73.45;100731.47;5121510;29;20066;-72
2022/11/12 06:27:26;;;;;;;29.52;14.77;;;;;;;4.40;73.09;100734.03;5117010;29;20051;-69
2022/11/12 06:30:35;;;;;;;24.27;12.05;;;;;;;4.46;73.02;100734.63;5120188;28;20062;-71
2022/11/12 06:33:45;;;;;;;34.20;15.10;;;;;;;4.37;73.51;100728.91;5114937;29;20066;-70
2022/11/12 06:36:54;;;;;;;38.40;17.85;;;;;;;4.29;72.75;100726.59;5117528;29;20066;-69
2022/11/12 06:40:04;;;;;;;29.95;15.55;;;;;;;4.28;73.18;100722.25;5117440;28;20421;-70
2022/11/12 06:43:13;;;;;;;18.98;10.32;;;;;;;4.21;72.18;100699.81;5120542;28;20051;-71
2022/11/12 06:46:22;;;;;;;22.48;11.75;;;;;;;4.52;72.02;100737.94;5121798;29;20502;-72
2022/11/12 06:49:31;;;;;;;23.30;12.75;;;;;;;4.30;72.40;100724.81;5124435;29;20473;-70
2022/11/12 06:52:40;;;;;;;22.92;12.27;;;;;;;4.28;72.96;100731.91;5111745;29;20085;-73
2022/11/12 06:55:50;;;;;;;23.27;12.82;;;;;;;4.30;72.58;100720.41;5121224;28;20102;-69
2022/11/12 06:58:58;;;;;;;22.30;12.07;;;;;;;4.24;72.49;100700.53;5117073;29;20134;-72
2022/11/12 07:02:11;;;;;;;28.15;14.15;;;;;;;4.33;73.33;100712.41;5123984;28;20521;-69
2022/11/12 07:05:19;;;;;;;27.90;14.75;;;;;;;4.40;73.03;100707.75;5118296;29;20455;-69
2022/11/12 07:08:28;;;;;;;26.80;15.40;;;;;;;4.51;74.14;100717.84;5124802;29;20055;-71
2022/11/12 07:11:38;;;;;;;26.88;14.90;;;;;;;4.68;73.43;100718.84;5120226;28;20062;-70
2022/11/12 07:14:47;;;;;;;30.15;16.38;;;;;;;4.78;74.10;100719.31;5124169;29;20055;-72
2022/11/12 07:17:56;;;;;;;32.67;16.35;;;;;;;4.82;73.31;100705.13;5121032;29;20132;-70
2022/11/12 07:21:11;;;;;;;42.30;19.35;;;;;;;4.97;72.92;100700.13;5124437;28;20522;-71
2022/11/12 07:24:20;;;;;;;42.72;20.45;;;;;;;5.19;73.90;100717.53;5123476;29;20529;-69
2022/11/12 07:27:30;;;;;;;37.08;19.73;;;;;;;5.40;73.68;100728.03;5117955;28;20126;-69
2022/11/12 07:30:38;;;;;;;34.90;18.95;;;;;;;5.60;73.68;100733.25;5120253;28;20482;-70
2022/11/12 07:33:48;;;;;;;34.65;18.90;;;;;;;5.84;73.87;100712.00;5123013;29;20066;-71
2022/11/12 07:36:57;;;;;;;32.20;18.33;;;;;;;6.09;73.51;100707.31;5119057;29;20647;-69
2022/11/12 07:40:07;;;;;;;35.03;16.92;;;;;;;6.23;73.53;100717.19;5108838;29;20054;-70
2022/11/12 07:43:15;;;;;;;24.50;14.07;;;;;;;6.43;73.62;100718.84;5120913;28;20185;-72
2022/11/12 07:46:26;;;;;;;24.98;14.68;;;;;;;6.68;73.51;100713.19;5122206;29;20498;-71
2022/11/12 07:49:35;;;;;;;23.25;13.88;;;;;;;6.86;73.28;100695.63;5115815;29;20164;-70
2022/11/12 07:52:44;;;;;;;24.00;12.50;;;;;;;6.98;73.04;100679.13;5107331;29;20565;-73
2022/11/12 07:55:58;;;;;;;24.45;14.25;;;;;;;6.97;73.20;100688.00;5118461;28;20458;-71
2022/11/12 07:59:07;;;;;;;23.70;14.20;;;;;;;7.29;73.65;100703.94;5120021;28;20132;-70
2022/11/12 08:02:16;;;;;;;24.20;14.43;;;;;;;7.49;73.22;100710.78;5120627;28;20496;-70
2022/11/12 08:05:25;;;;;;;31.40;14.77;;;;;;;8.30;72.70;100711.56;5120124;29;20482;-70
2022/11/12 08:08:34;;;;;;;24.88;14.57;;;;;;;9.20;70.12;100708.06;5119194;29;20062;-70
2022/11/12 08:11:43;;;;;;;23.85;13.95;;;;;;;9.88;67.17;100705.59;5115508;28;20455;-71
2022/11/12 08:14:52;;;;;;;18.58;11.73;;;;;;;10.48;65.28;100704.41;5115846;28;20079;-70
2022/11/12 08:18:01;;;;;;;13.80;9.80;;;;;;;11.01;63.47;100712.38;5116155;28;20442;-70
2022/11/12 08:21:13;;;;;;;17.90;10.77;;;;;;;11.34;64.47;100706.53;5120542;28;20079;-72
2022/11/12 08:24:22;;;;;;;13.85;8.80;;;;;;;11.52;63.28;100707.94;5117050;28;20056;-70
2022/11/12 08:27:31;;;;;;;12.70;8.30;;;;;;;11.77;62.50;100706.16;5121839;29;20121;-70
2022/11/12 08:30:40;;;;;;;14.63;8.02;;;;;;;11.97;61.85;100700.28;5122062;28;20070;-73
2022/11/12 08:33:49;;;;;;;11.32;7.25;;;;;;;12.39;59.01;100698.13;5126376;28;20061;-70
2022/11/12 08:36:59;;;;;;;14.98;7.95;;;;;;;12.34;60.18;100704.75;5118680;28;20058;-72
2022/11/12 08:40:09;;;;;;;12.35;7.20;;;;;;;12.63;59.16;100700.75;5121578;28;20047;-72
2022/11/12 08:43:18;;;;;;;15.90;7.55;;;;;;;12.77;59.49;100702.38;5114866;28;20051;-70
2022/11/12 08:46:27;;;;;;;13.73;6.57;;;;;;;12.63;59.37;100702.56;5116356;28;20067;-70
2022/11/12 08:49:36;;;;;;;13.20;6.78;;;;;;;12.80;58.76;100694.16;5117326;28;20062;-69
2022/11/12 08:52:45;;;;;;;12.82;7.00;;;;;;;12.86;58.71;100692.84;5121951;28;20075;-70
2022/11/12 08:55:55;;;;;;;11.98;6.63;;;;;;;12.80;58.75;100686.16;5114108;28;21771;-71
2022/11/12 08:59:04;;;;;;;10.07;6.35;;;;;;;13.00;56.67;100689.97;5113152;28;20982;-70
2022/11/12 09:02:15;;;;;;;17.42;6.68;;;;;;;13.10;57.25;100693.63;5113995;28;20101;-71
2022/11/12 09:05:24;;;;;;;11.27;6.28;;;;;;;12.52;58.99;100698.06;5120338;29;20142;-72
2022/11/12 09:08:35;;;;;;;10.65;6.00;;;;;;;11.95;60.54;100688.06;5118259;28;20086;-72
2022/11/12 09:11:44;;;;;;;9.82;6.78;;;;;;;11.68;60.60;100678.44;5119764;28;20568;-72
2022/11/12 09:14:52;;;;;;;18.25;7.97;;;;;;;11.35;62.33;100687.00;5117478;28;20054;-70
2022/11/12 09:18:17;;;;;;;10.00;6.63;;;;;;;11.18;62.72;100685.50;5119653;29;20078;-70
2022/11/12 09:21:26;;;;;;;12.93;6.97;;;;;;;11.21;63.02;100684.44;5117467;28;20106;-73
2022/11/12 09:24:35;;;;;;;11.27;6.88;;;;;;;11.12;63.38;100674.47;5120150;29;20066;-71
2022/11/12 09:27:44;;;;;;;11.75;6.63;;;;;;;10.65;65.92;100683.88;5121531;29;20055;-70
2022/11/12 09:30:56;;;;;;;10.48;6.40;;;;;;;10.67;64.32;100676.66;5120518;28;20046;-75
2022/11/12 09:34:06;;;;;;;10.43;6.85;;;;;;;10.90;64.81;100672.47;5120923;29;20062;-71
2022/11/12 09:37:15;;;;;;;11.90;6.47;;;;;;;10.99;63.98;100655.88;5120824;29;20054;-73
2022/11/12 09:40:36;;;;;;;13.60;7.22;;;;;;;11.09;64.92;100682.63;5116044;28;20054;-72
2022/11/12 09:43:55;;;;;;;12.82;7.32;;;;;;;11.44;62.36;100669.56;5120951;29;20105;-70
2022/11/12 09:47:19;;;;;;;10.10;6.63;;;;;;;11.21;63.10;100672.03;5119170;28;20074;-71
2022/11/12 09:50:32;;;;;;;8.88;7.05;;;;;;;11.32;64.66;100668.59;5118004;28;20070;-72
2022/11/12 09:53:57;;;;;;;10.48;6.88;;;;;;;11.30;63.40;100654.59;5118676;29;20142;-70
2022/11/12 09:57:12;;;;;;;;;;;;;;;11.19;63.01;100678.38;5117295;28;20082;-72
2022/11/12 10:00:21;;;;;;;9.38;6.60;;;;;;;11.42;63.62;100669.69;5116573;28;19971;-71
2022/11/12 10:03:55;;;;;;;10.65;7.15;;;;;;;11.63;63.42;100679.75;5117167;29;20114;-70
2022/11/12 10:07:20;;;;;;;13.43;7.93;;;;;;;11.59;64.39;100671.16;5120344;29;20106;-69
2022/11/12 10:10:36;;;;;;;12.30;7.00;;;;;;;11.67;63.34;100668.78;5119056;29;20182;-69
2022/11/12 10:14:30;;;;;;;11.43;7.22;;;;;;;12.11;61.85;100670.03;5119468;29;20086;-68
2022/11/12 10:17:46;;;;;;;16.45;7.78;;;;;;;11.80;62.53;100663.44;5111677;28;20058;-72
2022/11/12 10:21:18;;;;;;;13.02;6.82;;;;;;;11.77;62.21;100629.94;5122439;28;20043;-71
2022/11/12 10:24:33;;;;;;;9.77;6.35;;;;;;;11.89;61.36;100662.81;5123803;29;20430;-71
2022/11/12 10:27:44;;;;;;;10.45;6.63;;;;;;;12.14;62.05;100667.16;5123556;29;20047;-71
2022/11/12 10:30:59;;;;;;;9.93;6.45;;;;;;;12.11;60.53;100659.41;5128172;28;20043;-71
2022/11/12 10:34:16;;;;;;;11.15;6.35;;;;;;;11.98;62.22;100659.44;5129427;28;20573;-70
2022/11/12 10:37:45;;;;;;;11.13;7.07;;;;;;;11.87;62.74;100651.44;5122906;28;20225;-70
2022/11/12 10:40:55;;;;;;;10.13;6.28;;;;;;;12.21;62.39;100647.13;5125885;28;20090;-70
2022/11/12 10:44:06;;;;;;;10.38;6.97;;;;;;;12.30;61.05;100644.75;5124786;28;20078;-70
2022/11/12 10:47:17;;;;;;;13.65;6.93;;;;;;;12.37;60.77;100644.19;5122054;29;20542;-70
2022/11/12 10:50:35;;;;;;;13.05;7.43;;;;;;;12.40;62.04;100635.13;5122185;28;20070;-71
2022/11/12 10:53:44;;;;;;;12.57;6.70;;;;;;;12.27;61.33;100637.00;5122643;29;20051;-70
2022/11/12 10:56:53;;;;;;;10.23;6.82;;;;;;;12.70;61.58;100640.78;5126626;28;20434;-70
2022/11/12 11:00:13;;;;;;;10.88;6.60;;;;;;;12.80;59.50;100638.25;5117155;28;20067;-70
2022/11/12 11:03:26;;;;;;;8.38;5.82;;;;;;;12.94;60.76;100619.41;5125952;28;20421;-70
2022/11/12 11:06:35;;;;;;;11.70;6.65;;;;;;;13.29;61.52;100638.97;5123873;28;20691;-70
2022/11/12 11:09:56;;;;;;;10.43;6.20;;;;;;;13.38;59.34;100623.09;5129741;28;20085;-70
2022/11/12 11:13:21;;;;;;;8.00;5.72;;;;;;;13.44;59.54;100610.25;5125203;28;20413;-70
2022/11/12 11:16:46;;;;;;;;;;;;;;;13.46;59.63;100633.13;5122407;28;20056;-70
2022/11/12 11:19:55;;;;;;;8.85;5.93;;;;;;;13.38;59.24;100632.91;5128045;28;19930;-70
2022/11/12 11:23:22;;;;;;;11.13;6.38;;;;;;;13.41;59.51;100608.69;5119518;28;20054;-70
2022/11/12 11:26:57;;;;;;;9.07;6.03;;;;;;;13.49;58.83;100608.06;5126975;28;20114;-70
2022/11/12 11:30:18;;;;;;;11.93;6.95;;;;;;;13.47;59.61;100600.19;5123158;28;20066;-70
2022/11/12 11:33:39;;;;;;;11.27;6.45;;;;;;;13.60;61.34;100610.72;5122228;28;20055;-70
2022/11/12 11:36:58;;;;;;;7.70;5.90;;;;;;;13.64;60.07;100604.16;5124300;28;20066;-70
2022/11/12 11:40:20;;;;;;;10.68;6.00;;;;;;;13.79;58.99;100599.41;5121570;28;20055;-69
2022/11/12 11:43:50;;;;;;;12.25;6.40;;;;;;;13.65;57.78;100603.19;5124371;28;20051;-70
2022/11/12 11:47:21;;;;;;;10.45;5.88;;;;;;;13.00;58.86;100603.94;5118629;29;20098;-70
2022/11/12 11:50:34;;;;;;;8.73;5.90;;;;;;;13.28;59.53;100602.66;5123664;28;20051;-70
2022/11/12 11:54:00;;;;;;;10.30;6.43;;;;;;;13.45;58.91;100598.63;5123039;28;20062;-69
2022/11/12 11:57:15;;;;;;;12.95;6.03;;;;;;;13.47;57.94;100600.19;5122338;28;20062;-70
2022/11/12 12:00:29;;;;;;;;;;;;;;;13.37;58.44;100589.41;5123235;28;20047;-70
2022/11/12 12:04:16;;;;;;;10.48;6.70;;;;;;;13.54;59.24;100595.19;5116342;28;19953;-70
2022/11/12 12:07:34;;;;;;;10.88;6.72;;;;;;;13.61;59.40;100591.94;5115891;28;20058;-70
2022/11/12 12:11:06;;;;;;;12.57;6.65;;;;;;;13.59;58.92;100585.88;5121075;28;20573;-70
2022/11/12 12:14:29;;;;;;;11.48;6.32;;;;;;;13.60;58.06;100578.72;5123386;28;20726;-70
2022/11/12 12:17:41;;;;;;;13.45;7.45;;;;;;;13.64;59.78;100569.50;5127938;28;20126;-70
2022/11/12 12:20:54;;;;;;;13.77;6.80;;;;;;;13.63;59.19;100576.66;5127492;28;20108;-71
2022/11/12 12:24:28;;;;;;;13.82;6.82;;;;;;;13.55;59.60;100570.28;5119073;29;20093;-73
2022/11/12 12:27:48;;;;;;;13.17;7.33;;;;;;;13.76;58.32;100575.66;5125381;28;20066;-71
2022/11/12 12:31:03;;;;;;;13.45;7.60;;;;;;;13.72;60.83;100564.41;5120131;28;20054;-71
2022/11/12 12:34:25;;;;;;;14.00;7.35;;;;;;;13.77;60.65;100564.00;5118394;28;20138;-72
2022/11/12 12:37:55;;;;;;;14.48;7.80;;;;;;;13.58;60.85;100564.69;5115741;29;20082;-71
2022/11/12 12:41:26;;;;;;;11.10;7.47;;;;;;;13.72;60.24;100563.56;5117963;28;20576;-69
2022/11/12 12:45:06;;;;;;;15.52;7.18;;;;;;;13.63;59.95;100555.31;5119632;28;20102;-69
2022/11/12 12:48:38;;;;;;;14.07;8.20;;;;;;;13.62;60.37;100545.66;5117020;28;20066;-70
2022/11/12 12:51:48;;;;;;;12.95;7.45;;;;;;;13.68;60.19;100549.63;5116067;28;20050;-71
2022/11/12 12:55:04;;;;;;;13.52;8.40;;;;;;;13.54;61.25;100529.44;5114653;28;20067;-72
2022/11/12 12:58:22;;;;;;;14.38;8.30;;;;;;;13.63;61.06;100542.00;5118449;29;20095;-72
2022/11/12 13:01:34;;;;;;;16.77;8.32;;;;;;;13.57;62.02;100523.84;5118982;28;20424;-72
2022/11/12 13:04:56;;;;;;;13.45;7.88;;;;;;;13.49;62.00;100536.97;5109440;29;20051;-72
2022/11/12 13:08:11;;;;;;;13.48;8.68;;;;;;;13.04;63.90;100529.00;5122929;29;20140;-72
2022/11/12 13:12:20;;;;;;;13.50;8.65;;;;;;;13.36;62.54;100536.25;5120355;28;20105;-72
2022/11/12 13:15:13;;;;;;;21.35;12.07;;;;;;;13.43;63.21;100532.13;5122164;28;20051;-72
2022/11/12 13:18:37;;;;;;;13.48;8.35;;;;;;;13.54;62.84;100528.56;5107988;29;20552;-73
2022/11/12 13:21:46;;;;;;;14.83;9.50;;;;;;;12.98;62.88;100508.22;5122127;29;20650;-72
2022/11/12 13:25:07;;;;;;;14.15;9.65;;;;;;;13.26;63.50;100517.50;5117125;28;20058;-75
2022/11/12 13:28:15;;;;;;;13.52;10.05;;;;;;;13.05;65.03;100512.06;5113438;28;20058;-73
2022/11/12 13:31:28;;;;;;;16.17;10.20;;;;;;;13.34;64.32;100520.41;5115160;28;20066;-74
2022/11/12 13:34:37;;;;;;;16.48;9.48;;;;;;;13.40;63.85;100513.72;5118748;29;20062;-72
2022/11/12 13:37:57;;;;;;;14.32;10.18;;;;;;;13.36;64.22;100517.63;5117641;28;20114;-73
2022/11/12 13:41:18;;;;;;;13.68;9.55;;;;;;;12.97;64.31;100506.50;5109749;28;20058;-72
2022/11/12 13:44:28;;;;;;;16.45;10.52;;;;;;;13.27;64.69;100515.69;5115146;28;20113;-73
2022/11/12 13:47:37;;;;;;;19.83;10.27;;;;;;;13.38;64.33;100521.00;5116091;28;20174;-72
2022/11/12 13:50:54;;;;;;;14.90;10.23;;;;;;;13.39;64.21;100509.38;5110712;28;20748;-72
2022/11/12 13:54:27;;;;;;;14.23;10.00;;;;;;;13.21;64.12;100511.69;5113860;28;20145;-71
2022/11/12 13:57:36;;;;;;;13.77;9.55;;;;;;;13.24;64.18;100511.44;5118883;28;20086;-72
2022/11/12 14:00:54;;;;;;;16.23;10.98;;;;;;;13.32;64.33;100503.69;5119479;28;20115;-71
2022/11/12 14:04:06;;;;;;;15.60;10.32;;;;;;;12.90;64.81;100497.31;5120461;29;20731;-71
2022/11/12 14:07:41;;;;;;;13.02;9.48;;;;;;;13.20;64.84;100511.81;5117091;29;20568;-69
2022/11/12 14:11:27;;;;;;;15.27;9.63;;;;;;;12.87;65.16;100505.53;5114647;28;20062;-72
2022/11/12 14:14:47;;;;;;;;;;;;;;;13.06;65.13;100503.09;5120884;29;20054;-70
2022/11/12 14:18:05;;;;;;;13.70;9.80;;;;;;;12.73;66.07;100503.97;5119113;29;19981;-72
2022/11/12 14:21:18;;;;;;;12.38;9.10;;;;;;;12.81;65.71;100498.88;5118683;28;20118;-71
2022/11/12 14:24:27;;;;;;;14.48;10.10;;;;;;;12.64;65.25;100502.88;5117558;28;20138;-73
2022/11/12 14:27:36;;;;;;;18.70;11.52;;;;;;;12.75;65.30;100499.38;5117767;28;20178;-71
2022/11/12 14:30:45;;;;;;;12.65;8.80;;;;;;;12.43;65.50;100478.78;5115601;28;20082;-71
2022/11/12 14:33:54;;;;;;;16.50;9.52;;;;;;;12.66;65.35;100489.44;5119797;28;20070;-70
2022/11/12 14:37:03;;;;;;;13.93;9.10;;;;;;;12.57;64.81;100493.66;5119531;28;20086;-70
2022/11/12 14:40:17;;;;;;;12.80;9.30;;;;;;;12.56;65.98;100475.19;5117185;28;20053;-71
2022/11/12 14:43:33;;;;;;;15.02;9.23;;;;;;;12.65;65.32;100469.13;5118484;29;20564;-72
2022/11/12 14:46:46;;;;;;;16.00;10.10;;;;;;;12.63;65.45;100471.91;5118567;29;20118;-71
2022/11/12 14:49:56;;;;;;;15.32;9.82;;;;;;;12.64;65.37;100470.09;5118654;28;20530;-71
2022/11/12 14:53:32;;;;;;;17.13;10.52;;;;;;;12.53;65.47;100460.28;5116025;29;20058;-72
2022/11/12 14:56:43;;;;;;;;;;;;;;;12.44;65.36;100472.50;5120289;28;20505;-70
2022/11/12 14:59:52;;;;;;;13.32;9.77;;;;;;;12.41;66.11;100469.22;5116225;29;19933;-70
2022/11/12 15:03:03;;;;;;;17.38;11.50;;;;;;;12.35;66.13;100473.22;5118644;28;20070;-71
2022/11/12 15:06:19;;;;;;;20.88;12.80;;;;;;;12.23;65.70;100459.06;5118474;28;20791;-72
2022/11/12 15:09:35;;;;;;;16.40;10.90;;;;;;;12.24;66.15;100478.50;5119542;29;20059;-70
2022/11/12 15:12:43;;;;;;;19.40;11.50;;;;;;;12.14;66.49;100470.41;5118162;28;20094;-70
2022/11/12 15:15:59;;;;;;;20.17;11.73;;;;;;;11.88;66.88;100451.13;5123413;28;20062;-71